Terminal Aerodrome Forecast
Issued by NWS

Home | Current Version | Previous Version | Text Only | Print | Product List | Glossary On
Versions: 1 2 3 4 5 6 7 8 9 10 11 12 13
000
FTUS45 KREV 170500
TAFRNO
TAF
KRNO 170520Z 1706/1806 VRB03KT P6SM SKC
     FM171800 20010KT P6SM FEW200
     FM172000 24015G25KT P6SM SCT150 SCT200
     FM180500 29010KT P6SM SCT080 BKN140=

USA.gov is the U.S. government's official web portal to all federal, state and local government web resources and services.